Time;durP1;ratioP1;P1;durP2;ratioP2;P2;SDS_P1;SDS_P2;PMS_P1;PMS_P2;Temp;Humidity;BMP_temperature;BMP_pressure;BME280_temperature;BME280_humidity;BME280_pressure;Samples;Min_cycle;Max_cycle;Signal;HPM_P1;HPM_P2
2021/12/11 00:00:41;;;;;;;14.07;13.57;;;21.10;49.60;;;;;;5074213;28;20442;-54
2021/12/11 00:03:14;;;;;;;13.67;13.27;;;20.90;49.80;;;;;;5089141;28;20469;-56
2021/12/11 00:05:43;;;;;;;13.87;13.47;;;20.90;50.00;;;;;;5094536;28;20450;-57
2021/12/11 00:08:10;;;;;;;13.13;12.77;;;20.80;50.20;;;;;;5094485;28;20446;-54
2021/12/11 00:10:42;;;;;;;13.60;13.20;;;20.70;50.40;;;;;;5094414;28;20451;-55
2021/12/11 00:13:15;;;;;;;13.97;13.37;;;20.60;50.60;;;;;;5078779;28;20479;-51
2021/12/11 00:15:44;;;;;;;14.33;13.83;;;20.50;50.80;;;;;;5073946;28;20458;-51
2021/12/11 00:18:14;;;;;;;13.93;13.33;;;20.40;51.00;;;;;;5074066;28;20447;-57
2021/12/11 00:20:44;;;;;;;14.40;13.90;;;20.30;51.10;;;;;;5073827;28;20816;-57
2021/12/11 00:23:10;;;;;;;14.37;13.87;;;20.20;51.20;;;;;;5088226;28;20458;-52
2021/12/11 00:25:43;;;;;;;14.70;14.20;;;20.10;51.30;;;;;;5094274;28;20446;-50
2021/12/11 00:28:11;;;;;;;13.97;13.50;;;20.00;51.50;;;;;;5093979;28;20450;-52
2021/12/11 00:30:41;;;;;;;14.50;14.00;;;20.00;51.70;;;;;;5093981;28;20442;-52
2021/12/11 00:33:10;;;;;;;13.70;13.30;;;19.80;51.90;;;;;;5078979;28;20871;-52
2021/12/11 00:35:38;;;;;;;14.10;13.60;;;19.80;52.10;;;;;;5073564;28;20450;-51
2021/12/11 00:38:10;;;;;;;14.60;14.10;;;19.70;52.20;;;;;;5073591;28;20450;-55
2021/12/11 00:40:38;;;;;;;13.73;13.23;;;19.60;52.30;;;;;;5073824;28;20462;-52
2021/12/11 00:43:11;;;;;;;13.33;12.83;;;19.60;52.50;;;;;;5086921;28;20482;-55
2021/12/11 00:45:41;;;;;;;14.67;14.10;;;19.50;52.70;;;;;;5093515;28;20446;-49
2021/12/11 00:48:11;;;;;;;13.97;13.57;;;19.50;53.00;;;;;;5093919;28;20445;-52
2021/12/11 00:50:41;;;;;;;14.40;13.90;;;19.40;53.10;;;;;;5093731;28;20792;-55
2021/12/11 00:53:11;;;;;;;14.43;13.93;;;19.40;53.70;;;;;;5079216;28;20830;-57
2021/12/11 00:55:40;;;;;;;13.63;13.23;;;19.30;53.30;;;;;;5073302;28;20444;-53
2021/12/11 00:58:13;;;;;;;14.00;13.50;;;19.30;53.50;;;;;;5073141;28;20451;-56
2021/12/11 01:00:44;;;;;;;14.17;13.67;;;19.20;53.50;;;;;;5073639;28;20801;-51
2021/12/11 01:03:12;;;;;;;13.60;13.20;;;19.20;53.70;;;;;;5087627;28;20466;-50
2021/12/11 01:05:43;;;;;;;13.53;13.03;;;19.10;53.70;;;;;;5093044;28;20442;-51
2021/12/11 01:08:20;;;;;;;13.90;13.40;;;19.10;53.90;;;;;;5093812;28;20431;-51
2021/12/11 01:10:49;;;;;;;14.90;14.30;;;19.00;54.10;;;;;;5093132;28;20529;-51
2021/12/11 01:13:22;;;;;;;14.00;13.20;;;18.90;54.30;;;;;;5092508;28;20982;-54
2021/12/11 01:15:55;;;;;;;13.67;13.27;;;18.80;54.60;;;;;;5078322;28;20450;-52
2021/12/11 01:18:35;;;;;;;13.83;13.43;;;18.70;54.90;;;;;;5072797;28;20928;-53
2021/12/11 01:21:14;;;;;;;14.40;13.90;;;18.70;55.20;;;;;;5072719;28;20440;-54
2021/12/11 01:24:07;;;;;;;14.27;13.77;;;18.60;55.40;;;;;;5072777;28;20526;-52
2021/12/11 01:26:35;;;;;;;13.47;13.07;;;18.50;55.50;;;;;;5072581;28;20451;-56
2021/12/11 01:29:05;;;;;;;13.50;13.10;;;18.50;55.70;;;;;;5072532;28;20930;-55
2021/12/11 01:31:31;;;;;;;14.40;13.87;;;18.50;55.80;;;;;;5072375;28;20451;-50
2021/12/11 01:33:58;;;;;;;13.77;13.27;;;18.40;55.90;;;;;;5072691;28;20483;-53
2021/12/11 01:36:25;;;;;;;14.00;13.57;;;18.30;56.00;;;;;;5072496;28;20446;-53
2021/12/11 01:38:55;;;;;;;14.50;14.00;;;18.30;56.20;;;;;;5072473;28;20447;-54
2021/12/11 01:41:22;;;;;;;13.13;12.73;;;18.30;56.40;;;;;;5072467;28;20450;-51
2021/12/11 01:43:52;;;;;;;13.60;13.20;;;18.20;56.50;;;;;;5088035;28;20462;-52
2021/12/11 01:46:28;;;;;;;14.63;14.13;;;18.20;56.70;;;;;;5092671;28;20449;-49
2021/12/11 01:49:00;;;;;;;15.00;14.50;;;18.10;56.90;;;;;;5092470;28;20450;-51
2021/12/11 01:51:30;;;;;;;14.97;14.37;;;18.10;57.10;;;;;;5092586;28;20446;-49
2021/12/11 01:54:02;;;;;;;13.60;13.20;;;18.00;57.00;;;;;;5091732;28;20522;-49
2021/12/11 01:56:31;;;;;;;14.17;13.67;;;18.00;57.10;;;;;;5091611;28;20446;-51
2021/12/11 01:59:05;;;;;;;14.43;13.93;;;18.00;57.20;;;;;;5092476;28;20500;-50
2021/12/11 02:01:37;;;;;;;13.80;13.30;;;18.00;57.40;;;;;;5092183;28;20816;-53
2021/12/11 02:04:06;;;;;;;14.37;13.77;;;17.90;57.50;;;;;;5071958;28;20470;-49
2021/12/11 02:06:36;;;;;;;14.37;13.90;;;17.90;57.70;;;;;;5072030;28;20830;-51
2021/12/11 02:09:12;;;;;;;14.83;14.23;;;17.80;57.80;;;;;;5071956;28;20454;-50
2021/12/11 02:11:39;;;;;;;15.70;15.10;;;17.80;58.00;;;;;;5071960;28;20446;-53
2021/12/11 02:14:07;;;;;;;14.97;14.37;;;17.80;58.00;;;;;;5075197;28;20524;-49
2021/12/11 02:16:42;;;;;;;14.87;14.27;;;17.70;58.10;;;;;;5092137;28;20442;-49
2021/12/11 02:19:11;;;;;;;14.90;14.40;;;17.70;58.20;;;;;;5092079;28;20445;-50
2021/12/11 02:21:49;;;;;;;14.37;13.87;;;17.70;58.40;;;;;;5092035;28;20899;-52
2021/12/11 02:24:20;;;;;;;14.10;13.60;;;17.60;58.30;;;;;;5071693;28;20459;-50
2021/12/11 02:26:47;;;;;;;14.93;14.43;;;17.60;59.20;;;;;;5071840;28;20443;-49
2021/12/11 02:29:20;;;;;;;14.73;14.23;;;17.60;58.80;;;;;;5071820;28;20822;-48
2021/12/11 02:31:50;;;;;;;15.17;14.67;;;17.60;59.00;;;;;;5071420;28;20817;-49
2021/12/11 02:34:23;;;;;;;15.80;15.20;;;17.50;59.10;;;;;;5071751;28;20888;-49
2021/12/11 02:36:54;;;;;;;14.13;13.63;;;17.50;59.20;;;;;;5071994;28;20443;-54
2021/12/11 02:39:26;;;;;;;14.80;14.30;;;17.40;59.40;;;;;;5071651;28;20467;-54
2021/12/11 02:41:57;;;;;;;14.37;13.87;;;17.50;59.70;;;;;;5071440;28;20458;-53
2021/12/11 02:44:29;;;;;;;13.60;13.10;;;17.40;59.70;;;;;;5071568;28;20475;-54
2021/12/11 02:47:00;;;;;;;14.83;14.33;;;17.40;59.90;;;;;;5071669;28;20856;-57
2021/12/11 02:49:31;;;;;;;16.20;15.50;;;17.40;60.10;;;;;;5071972;28;20454;-57
2021/12/11 02:52:05;;;;;;;14.20;13.70;;;17.40;60.20;;;;;;5071297;28;20493;-56
2021/12/11 02:54:36;;;;;;;13.63;13.23;;;17.30;60.30;;;;;;5071249;28;20491;-57
2021/12/11 02:57:07;;;;;;;14.40;13.90;;;17.30;60.50;;;;;;5071485;28;20513;-55
2021/12/11 02:59:40;;;;;;;14.50;14.00;;;17.30;60.70;;;;;;5071443;28;20443;-54
2021/12/11 03:02:11;;;;;;;14.80;14.20;;;17.30;60.70;;;;;;5071181;28;20951;-51
2021/12/11 03:04:46;;;;;;;14.67;14.17;;;17.30;61.00;;;;;;5071424;28;20912;-53
2021/12/11 03:07:16;;;;;;;14.53;14.03;;;17.30;61.20;;;;;;5072751;28;20474;-54
2021/12/11 03:09:47;;;;;;;14.43;13.93;;;17.30;61.30;;;;;;5075367;28;20539;-51
2021/12/11 03:12:15;;;;;;;14.93;14.43;;;17.20;61.50;;;;;;5075101;28;20448;-51
2021/12/11 03:14:43;;;;;;;15.03;14.43;;;17.20;61.70;;;;;;5074889;28;20475;-54
2021/12/11 03:17:11;;;;;;;13.93;13.53;;;17.20;61.80;;;;;;5075366;28;20446;-54
2021/12/11 03:19:41;;;;;;;14.90;14.30;;;17.20;61.90;;;;;;5074994;28;20450;-57
2021/12/11 03:22:11;;;;;;;15.13;14.60;;;17.20;62.00;;;;;;5075102;28;20534;-56
2021/12/11 03:24:39;;;;;;;14.43;13.83;;;17.20;62.20;;;;;;5075184;28;20459;-50
2021/12/11 03:27:06;;;;;;;15.17;14.57;;;17.20;62.40;;;;;;5075024;28;20450;-53
2021/12/11 03:29:34;;;;;;;14.80;14.30;;;17.10;62.40;;;;;;5074581;28;20477;-56
2021/12/11 03:32:02;;;;;;;15.20;14.60;;;17.10;62.50;;;;;;5074759;28;20829;-52
2021/12/11 03:34:29;;;;;;;14.67;14.17;;;17.10;62.60;;;;;;5074781;28;20879;-54
2021/12/11 03:36:59;;;;;;;15.00;14.50;;;17.10;62.60;;;;;;5074777;28;20855;-55
2021/12/11 03:39:29;;;;;;;15.47;14.87;;;17.10;62.80;;;;;;5074624;28;20454;-55
2021/12/11 03:41:59;;;;;;;14.70;14.20;;;17.00;62.80;;;;;;5074794;28;20832;-57
2021/12/11 03:44:32;;;;;;;14.33;13.83;;;17.00;63.20;;;;;;5074753;28;20874;-56
2021/12/11 03:47:01;;;;;;;14.13;13.63;;;17.00;63.30;;;;;;5074740;28;20447;-52
2021/12/11 03:49:28;;;;;;;14.57;14.07;;;17.00;63.50;;;;;;5074396;28;20843;-52
2021/12/11 03:51:55;;;;;;;15.93;15.33;;;17.00;63.50;;;;;;5074478;28;20801;-52
2021/12/11 03:54:25;;;;;;;13.97;13.57;;;17.00;63.70;;;;;;5074145;28;20487;-51
2021/12/11 03:56:52;;;;;;;14.40;14.00;;;16.90;64.10;;;;;;5074435;28;20447;-51
2021/12/11 03:59:20;;;;;;;14.40;13.90;;;16.90;64.90;;;;;;5074320;28;20443;-50
2021/12/11 04:01:52;;;;;;;14.63;14.13;;;17.00;65.70;;;;;;5074271;28;20518;-53
2021/12/11 04:04:28;;;;;;;15.03;14.43;;;17.10;65.80;;;;;;5074114;28;20463;-49
2021/12/11 04:06:57;;;;;;;15.37;14.80;;;17.10;65.90;;;;;;5074638;28;20430;-49
2021/12/11 04:09:24;;;;;;;14.30;13.80;;;17.10;66.00;;;;;;5074002;28;20443;-49
2021/12/11 04:11:53;;;;;;;14.30;13.80;;;17.20;66.20;;;;;;5073968;28;20943;-52
2021/12/11 04:14:26;;;;;;;14.70;14.20;;;17.20;66.20;;;;;;5073874;28;20509;-53
2021/12/11 04:16:53;;;;;;;15.20;14.70;;;17.10;66.30;;;;;;5074254;28;20446;-53
2021/12/11 04:19:21;;;;;;;14.73;14.23;;;17.10;66.70;;;;;;5073090;28;20454;-53
2021/12/11 04:21:49;;;;;;;15.00;14.50;;;17.10;67.00;;;;;;5074190;28;20454;-50
2021/12/11 04:24:18;;;;;;;13.87;13.43;;;17.20;67.00;;;;;;5073958;28;20824;-50
2021/12/11 04:26:46;;;;;;;14.50;13.97;;;17.20;67.30;;;;;;5074178;28;20447;-50
2021/12/11 04:29:13;;;;;;;14.80;14.30;;;17.10;67.20;;;;;;5073932;28;20478;-56
2021/12/11 04:31:43;;;;;;;15.07;14.40;;;17.20;67.40;;;;;;5073784;28;20522;-48
2021/12/11 04:34:13;;;;;;;14.90;14.33;;;17.10;67.40;;;;;;5073765;28;20877;-50
2021/12/11 04:36:44;;;;;;;14.33;13.83;;;17.10;67.50;;;;;;5073811;28;20968;-54
2021/12/11 04:39:15;;;;;;;15.07;14.57;;;17.10;67.70;;;;;;5073691;28;20439;-56
2021/12/11 04:41:51;;;;;;;14.80;14.20;;;17.10;68.00;;;;;;5073819;28;20455;-57
2021/12/11 04:44:24;;;;;;;14.20;13.70;;;17.10;68.20;;;;;;5073391;28;20478;-51
2021/12/11 04:46:53;;;;;;;16.20;15.40;;;17.10;68.20;;;;;;5073609;28;20474;-52
2021/12/11 04:49:28;;;;;;;15.90;15.30;;;17.00;68.50;;;;;;5073712;28;20479;-54
2021/12/11 04:52:03;;;;;;;15.40;14.80;;;17.00;68.60;;;;;;5073432;28;20504;-53
2021/12/11 04:54:43;;;;;;;14.83;14.33;;;17.10;69.00;;;;;;5073554;28;20524;-50
2021/12/11 05:00:06;;;;;;;16.00;15.40;;;17.10;69.90;;;;;;5029063;28;20431;-49
2021/12/11 05:03:06;;;;;;;15.63;15.13;;;17.10;69.50;;;;;;5073229;28;20458;-49
2021/12/11 05:05:50;;;;;;;15.40;14.80;;;17.10;69.40;;;;;;5073495;28;20463;-49
2021/12/11 05:08:58;;;;;;;15.20;14.53;;;17.10;69.70;;;;;;5073279;28;20439;-49
2021/12/11 05:11:15;;;;;;;14.90;14.40;;;17.10;69.90;;;;;;5073084;28;20820;-50
2021/12/11 05:13:43;;;;;;;15.23;14.73;;;17.10;69.90;;;;;;5072979;28;20536;-50
2021/12/11 05:16:12;;;;;;;15.13;14.63;;;17.10;69.80;;;;;;5072927;28;20479;-51
2021/12/11 05:18:43;;;;;;;14.27;13.77;;;17.10;70.80;;;;;;5088492;28;20454;-53
2021/12/11 05:21:13;;;;;;;16.37;15.67;;;17.00;70.40;;;;;;5072927;28;20447;-50
2021/12/11 05:23:40;;;;;;;15.60;15.00;;;17.00;70.70;;;;;;5072966;28;20814;-51
2021/12/11 05:26:07;;;;;;;16.63;15.77;;;17.00;71.10;;;;;;5072884;28;20447;-51
2021/12/11 05:28:35;;;;;;;16.53;15.83;;;17.00;71.00;;;;;;5073108;28;20959;-48
2021/12/11 05:31:04;;;;;;;15.30;14.80;;;17.00;71.30;;;;;;5071701;28;20447;-49
2021/12/11 05:33:31;;;;;;;17.30;16.60;;;16.90;71.30;;;;;;5072473;28;20467;-50
2021/12/11 05:35:59;;;;;;;16.10;15.50;;;16.90;72.30;;;;;;5072505;28;20837;-54
2021/12/11 05:38:26;;;;;;;15.27;14.67;;;17.00;71.50;;;;;;5072564;28;20478;-48
2021/12/11 05:40:56;;;;;;;15.20;14.60;;;17.10;71.40;;;;;;5072588;28;20458;-52
2021/12/11 05:43:23;;;;;;;15.60;15.10;;;17.20;71.10;;;;;;5072833;28;20471;-52
2021/12/11 05:45:50;;;;;;;16.07;15.47;;;17.20;70.90;;;;;;5072546;28;20438;-56
2021/12/11 05:48:17;;;;;;;15.43;14.93;;;17.30;71.00;;;;;;5074674;28;20451;-54
2021/12/11 05:50:47;;;;;;;14.70;14.20;;;17.20;71.80;;;;;;5071930;28;20440;-56
2021/12/11 05:53:16;;;;;;;15.20;14.70;;;18.00;72.70;;;;;;5071788;28;20462;-57
2021/12/11 05:55:45;;;;;;;15.30;14.70;;;18.90;68.50;;;;;;5071844;28;20484;-57
2021/12/11 05:58:14;;;;;;;15.03;14.43;;;19.50;64.90;;;;;;5085426;28;20457;-57
2021/12/11 06:00:46;;;;;;;15.60;15.00;;;19.80;62.10;;;;;;5092262;28;20446;-53
2021/12/11 06:03:14;;;;;;;15.50;14.90;;;20.10;60.10;;;;;;5091434;28;20531;-56
2021/12/11 06:05:43;;;;;;;15.77;15.17;;;20.30;58.80;;;;;;5092017;28;20450;-58
2021/12/11 06:08:11;;;;;;;16.03;15.43;;;20.30;58.10;;;;;;5078600;28;20443;-54
2021/12/11 06:10:40;;;;;;;15.67;15.07;;;20.50;58.10;;;;;;5071611;28;20921;-57
2021/12/11 06:13:09;;;;;;;16.07;15.37;;;20.50;57.00;;;;;;5071389;28;20467;-58
2021/12/11 06:15:36;;;;;;;15.20;14.70;;;20.70;56.30;;;;;;5071534;28;20475;-53
2021/12/11 06:18:04;;;;;;;16.30;15.70;;;20.70;55.90;;;;;;5083324;28;20442;-52
2021/12/11 06:20:33;;;;;;;16.50;15.90;;;20.50;56.20;;;;;;5091812;28;20947;-52
2021/12/11 06:22:59;;;;;;;15.70;15.10;;;20.60;55.50;;;;;;5091465;28;20458;-55
2021/12/11 06:25:28;;;;;;;15.83;15.23;;;20.70;55.30;;;;;;5091778;28;20445;-58
2021/12/11 06:27:57;;;;;;;16.23;15.63;;;20.60;54.90;;;;;;5090000;28;20450;-53
2021/12/11 06:30:23;;;;;;;15.77;15.23;;;20.60;54.90;;;;;;5091658;28;20438;-53
2021/12/11 06:32:52;;;;;;;16.33;15.70;;;20.60;54.70;;;;;;5091380;28;20473;-52
2021/12/11 06:35:24;;;;;;;15.63;15.03;;;20.70;54.50;;;;;;5082116;28;20479;-55
2021/12/11 06:37:50;;;;;;;15.70;15.10;;;20.60;54.10;;;;;;5071490;28;20439;-58
2021/12/11 06:40:18;;;;;;;16.20;15.60;;;20.60;54.10;;;;;;5071411;28;20956;-54
2021/12/11 06:42:46;;;;;;;16.23;15.63;;;20.50;54.00;;;;;;5071647;28;20478;-59
2021/12/11 06:45:15;;;;;;;16.40;15.70;;;20.50;54.30;;;;;;5071468;28;20447;-47
2021/12/11 06:47:43;;;;;;;16.97;16.27;;;20.50;54.20;;;;;;5071374;28;20451;-49
2021/12/11 06:50:12;;;;;;;17.47;16.77;;;20.50;54.40;;;;;;5071262;28;20443;-53
2021/12/11 06:52:40;;;;;;;16.73;16.13;;;20.50;54.20;;;;;;5070442;28;20471;-47
2021/12/11 06:55:10;;;;;;;16.60;15.90;;;20.40;54.20;;;;;;5059793;28;20458;-48
2021/12/11 06:57:38;;;;;;;17.50;16.60;;;20.50;54.50;;;;;;5062377;28;20447;-51
2021/12/11 07:00:07;;;;;;;15.63;15.13;;;20.40;54.70;;;;;;5071034;28;20509;-52
2021/12/11 07:02:37;;;;;;;15.90;15.30;;;20.50;54.90;;;;;;5070763;28;20526;-48
2021/12/11 07:05:06;;;;;;;16.40;15.80;;;20.30;54.60;;;;;;5090048;28;20454;-50
2021/12/11 07:07:35;;;;;;;16.27;15.67;;;20.30;54.90;;;;;;5091488;28;20474;-49
2021/12/11 07:10:07;;;;;;;14.93;14.43;;;20.30;55.00;;;;;;5091304;28;20438;-49
2021/12/11 07:12:35;;;;;;;14.73;14.13;;;20.40;55.30;;;;;;5091134;28;20447;-51
2021/12/11 07:15:05;;;;;;;15.60;15.00;;;20.40;55.50;;;;;;5072225;28;20454;-49
2021/12/11 07:17:34;;;;;;;12.90;12.30;;;20.40;55.70;;;;;;5071152;28;21018;-48
2021/12/11 07:20:04;;;;;;;14.30;13.57;;;20.70;55.70;;;;;;5070912;28;20956;-50
2021/12/11 07:22:31;;;;;;;12.30;11.80;;;21.30;53.40;;;;;;5070703;28;20451;-51
2021/12/11 07:25:02;;;;;;;13.40;12.90;;;21.60;53.50;;;;;;5088620;28;20446;-52
2021/12/11 07:27:29;;;;;;;12.90;12.37;;;21.70;53.20;;;;;;5090856;28;20438;-48
2021/12/11 07:29:56;;;;;;;13.10;12.57;;;22.30;52.90;;;;;;5091159;28;20982;-49
2021/12/11 07:32:23;;;;;;;13.10;12.60;;;22.90;52.00;;;;;;5073268;28;20451;-48
2021/12/11 07:34:50;;;;;;;13.23;12.73;;;23.10;50.90;;;;;;5070826;28;20455;-52
2021/12/11 07:37:18;;;;;;;13.37;12.87;;;23.20;50.40;;;;;;5070835;28;20482;-49
2021/12/11 07:39:45;;;;;;;12.80;12.40;;;23.30;50.00;;;;;;5070847;28;20458;-48
2021/12/11 07:42:11;;;;;;;13.10;12.67;;;23.30;49.80;;;;;;5085375;28;20450;-50
2021/12/11 07:44:38;;;;;;;13.17;12.47;;;23.30;49.60;;;;;;5091096;28;20485;-49
2021/12/11 07:47:07;;;;;;;12.30;11.90;;;23.30;49.50;;;;;;5091068;28;20442;-48
2021/12/11 07:49:34;;;;;;;12.37;11.97;;;23.20;49.30;;;;;;5090915;28;20975;-48
2021/12/11 07:52:01;;;;;;;12.37;11.97;;;23.40;49.70;;;;;;5077539;28;20447;-50
2021/12/11 07:54:29;;;;;;;12.63;12.23;;;23.60;49.30;;;;;;5072382;28;20477;-51
2021/12/11 07:56:56;;;;;;;13.20;12.70;;;24.10;48.80;;;;;;5074117;28;20839;-50
2021/12/11 07:59:23;;;;;;;12.80;12.30;;;24.20;48.00;;;;;;5074140;28;20443;-47
2021/12/11 08:01:51;;;;;;;13.23;12.80;;;24.20;47.70;;;;;;5085052;28;20454;-46
2021/12/11 08:04:22;;;;;;;13.57;13.17;;;24.20;47.50;;;;;;5094237;28;20995;-49
2021/12/11 08:06:50;;;;;;;13.07;12.67;;;24.30;47.60;;;;;;5094290;28;20485;-47
2021/12/11 08:09:21;;;;;;;13.70;13.20;;;24.20;47.40;;;;;;5094405;28;20443;-47
2021/12/11 08:11:51;;;;;;;11.15;10.70;;;24.20;47.20;;;;;;5082421;28;20456;-48
2021/12/11 08:14:19;;;;;;;12.90;12.40;;;24.10;47.20;;;;;;5073792;28;20232;-48
2021/12/11 08:16:47;;;;;;;13.90;13.30;;;24.20;47.40;;;;;;5073875;28;20844;-49
2021/12/11 08:19:16;;;;;;;12.53;12.03;;;24.40;47.60;;;;;;5073869;28;20461;-48
2021/12/11 08:21:44;;;;;;;13.13;12.63;;;24.60;47.30;;;;;;5082544;28;20529;-52
2021/12/11 08:24:10;;;;;;;13.17;12.67;;;24.90;46.90;;;;;;5093913;28;20467;-48
2021/12/11 08:26:40;;;;;;;13.87;13.37;;;24.90;46.50;;;;;;5093836;28;20525;-50
2021/12/11 08:29:09;;;;;;;13.33;12.83;;;24.90;46.50;;;;;;5093968;28;20447;-51
2021/12/11 08:31:37;;;;;;;12.83;12.43;;;24.90;46.40;;;;;;5085473;28;20820;-48
2021/12/11 08:34:04;;;;;;;13.73;13.23;;;24.80;46.30;;;;;;5086839;28;20462;-48
2021/12/11 08:36:31;;;;;;;12.30;11.90;;;24.70;46.40;;;;;;5093580;28;20474;-47
2021/12/11 08:38:59;;;;;;;12.53;12.07;;;24.70;46.30;;;;;;5093707;28;20446;-49
2021/12/11 08:41:28;;;;;;;12.20;11.80;;;24.60;46.40;;;;;;5093572;28;20872;-50
2021/12/11 08:44:02;;;;;;;12.20;11.70;;;24.90;46.60;;;;;;5081690;28;20478;-48
2021/12/11 08:46:35;;;;;;;12.40;12.00;;;25.50;45.70;;;;;;5073294;28;20867;-48
2021/12/11 08:49:07;;;;;;;12.73;12.33;;;25.70;45.00;;;;;;5073326;28;20447;-51
2021/12/11 08:51:37;;;;;;;13.13;12.73;;;25.70;44.70;;;;;;5073223;28;20460;-53
2021/12/11 08:54:08;;;;;;;13.13;12.63;;;25.70;44.70;;;;;;5085064;28;20832;-47
2021/12/11 08:56:37;;;;;;;13.93;13.43;;;25.70;44.70;;;;;;5093305;28;20474;-47
2021/12/11 08:59:04;;;;;;;14.17;13.67;;;25.60;44.60;;;;;;5093211;28;20445;-48
2021/12/11 09:01:39;;;;;;;11.80;11.40;;;25.60;44.70;;;;;;5092950;28;20442;-50
2021/12/11 09:04:12;;;;;;;11.90;11.50;;;25.50;44.70;;;;;;5079809;28;20442;-49
2021/12/11 09:06:42;;;;;;;13.70;13.30;;;25.50;44.90;;;;;;5072730;28;20939;-50
2021/12/11 09:09:16;;;;;;;14.33;13.73;;;25.70;44.80;;;;;;5072955;28;20850;-47
2021/12/11 09:11:47;;;;;;;12.15;11.75;;;26.10;44.40;;;;;;5072064;28;20442;-50
2021/12/11 09:14:18;;;;;;;13.43;12.93;;;26.20;43.80;;;;;;5085921;28;20224;-50
2021/12/11 09:16:51;;;;;;;14.73;14.20;;;26.20;43.60;;;;;;5092787;28;20890;-49
2021/12/11 09:19:25;;;;;;;13.20;12.70;;;26.10;43.70;;;;;;5092909;28;20449;-48
2021/12/11 09:21:59;;;;;;;13.87;13.17;;;26.00;43.60;;;;;;5092748;28;20807;-47
2021/12/11 09:24:30;;;;;;;13.07;12.67;;;25.90;43.70;;;;;;5077661;28;20572;-47
2021/12/11 09:27:01;;;;;;;13.60;13.20;;;25.90;43.80;;;;;;5072433;28;20857;-48
2021/12/11 09:29:33;;;;;;;12.90;12.50;;;25.90;43.90;;;;;;5072515;28;20500;-47
2021/12/11 09:32:09;;;;;;;14.10;13.60;;;26.40;43.60;;;;;;5072236;28;20804;-47
2021/12/11 09:34:39;;;;;;;11.88;11.48;;;26.50;43.10;;;;;;5086916;28;20444;-47
2021/12/11 09:37:07;;;;;;;13.20;12.80;;;26.50;43.00;;;;;;5085514;28;20229;-46
2021/12/11 09:39:39;;;;;;;14.33;13.83;;;26.40;42.90;;;;;;5072209;28;20444;-46
2021/12/11 09:42:05;;;;;;;14.17;13.67;;;26.30;42.90;;;;;;5071981;28;20454;-49
2021/12/11 09:44:38;;;;;;;14.13;13.63;;;26.20;42.80;;;;;;5071961;28;20475;-47
2021/12/11 09:47:10;;;;;;;13.43;13.03;;;26.00;43.00;;;;;;5078382;28;20507;-47
2021/12/11 09:49:42;;;;;;;12.90;12.50;;;26.00;43.50;;;;;;5092240;28;20932;-46
2021/12/11 09:52:17;;;;;;;12.07;11.77;;;26.20;43.60;;;;;;5092161;28;20882;-47
2021/12/11 09:54:47;;;;;;;12.63;12.23;;;26.50;43.30;;;;;;5092223;28;20935;-47
2021/12/11 09:57:17;;;;;;;12.90;12.50;;;26.70;42.90;;;;;;5084429;28;20479;-51
2021/12/11 09:59:47;;;;;;;13.83;13.30;;;26.60;42.70;;;;;;5071968;28;20861;-47
2021/12/11 10:02:20;;;;;;;13.33;12.83;;;26.60;42.80;;;;;;5071637;28;20452;-47
2021/12/11 10:04:58;;;;;;;12.80;12.30;;;26.50;42.70;;;;;;5090500;28;20451;-48
2021/12/11 10:07:32;;;;;;;13.30;12.90;;;26.40;42.60;;;;;;5091996;28;20529;-47
2021/12/11 10:10:11;;;;;;;13.37;12.87;;;26.10;42.60;;;;;;5092083;28;20489;-47
2021/12/11 10:12:41;;;;;;;13.40;13.00;;;26.00;43.10;;;;;;5090399;28;20466;-49
2021/12/11 10:15:14;;;;;;;13.17;12.67;;;26.00;43.40;;;;;;5072698;28;20444;-47
2021/12/11 10:17:44;;;;;;;13.33;12.90;;;26.10;43.50;;;;;;5070962;28;20482;-47
2021/12/11 10:20:15;;;;;;;13.47;13.07;;;26.40;43.20;;;;;;5071616;28;20443;-47
2021/12/11 10:22:43;;;;;;;13.87;13.47;;;26.70;43.40;;;;;;5071391;28;20463;-53
2021/12/11 10:25:13;;;;;;;14.50;14.00;;;26.70;42.50;;;;;;5071986;28;20475;-46
2021/12/11 10:27:40;;;;;;;14.03;13.53;;;26.50;42.30;;;;;;5071630;28;20442;-49
2021/12/11 10:30:12;;;;;;;13.13;12.60;;;26.40;42.50;;;;;;5071520;28;20455;-52
2021/12/11 10:32:39;;;;;;;13.70;13.30;;;26.20;42.70;;;;;;5071075;28;20528;-49
2021/12/11 10:35:09;;;;;;;12.33;11.93;;;26.10;42.90;;;;;;5072029;28;20457;-48
2021/12/11 10:37:37;;;;;;;11.70;11.30;;;26.10;43.00;;;;;;5071302;28;20478;-47
2021/12/11 10:40:09;;;;;;;11.67;11.30;;;26.10;43.10;;;;;;5071473;28;20455;-46
2021/12/11 10:42:36;;;;;;;12.17;11.77;;;26.50;43.00;;;;;;5082263;28;20462;-46
2021/12/11 10:45:05;;;;;;;13.23;12.83;;;26.80;42.50;;;;;;5091643;28;20453;-52
2021/12/11 10:47:37;;;;;;;13.70;13.20;;;26.80;42.10;;;;;;5091582;28;20439;-46
2021/12/11 10:50:08;;;;;;;15.00;14.30;;;26.80;42.10;;;;;;5091774;28;20446;-47
2021/12/11 10:52:36;;;;;;;14.60;14.10;;;26.80;42.10;;;;;;5080003;28;20451;-49
2021/12/11 10:55:07;;;;;;;13.40;12.90;;;26.70;42.20;;;;;;5071275;28;20769;-53
2021/12/11 10:57:34;;;;;;;13.50;13.10;;;26.60;42.30;;;;;;5072030;28;20482;-46
2021/12/11 11:00:08;;;;;;;11.53;11.13;;;26.40;42.30;;;;;;5090500;28;20836;-45
2021/12/11 11:02:36;;;;;;;13.93;13.43;;;26.40;42.50;;;;;;5091231;28;20532;-45
2021/12/11 11:05:07;;;;;;;14.67;14.20;;;26.90;42.50;;;;;;5091396;28;20447;-48
2021/12/11 11:07:35;;;;;;;13.67;13.17;;;27.00;42.00;;;;;;5091131;28;20465;-53
2021/12/11 11:10:08;;;;;;;15.93;15.43;;;27.00;42.00;;;;;;5071195;28;20447;-47
2021/12/11 11:12:36;;;;;;;14.43;13.97;;;26.90;41.90;;;;;;5070833;28;20933;-47
2021/12/11 11:15:04;;;;;;;13.00;12.50;;;26.90;42.00;;;;;;5071703;28;21610;-48
2021/12/11 11:17:34;;;;;;;12.25;11.85;;;26.80;41.90;;;;;;5076899;28;20455;-47
2021/12/11 11:20:05;;;;;;;14.13;13.63;;;26.70;42.10;;;;;;5091605;28;20231;-48
2021/12/11 11:22:36;;;;;;;14.60;14.00;;;26.50;42.20;;;;;;5076094;28;20444;-48
2021/12/11 11:25:07;;;;;;;14.70;14.20;;;26.40;42.40;;;;;;5071293;28;20505;-52
2021/12/11 11:27:35;;;;;;;15.13;14.63;;;26.70;42.50;;;;;;5071351;28;20439;-49
2021/12/11 11:30:03;;;;;;;13.43;13.02;;;27.10;42.10;;;;;;5074272;28;20499;-49
2021/12/11 11:32:32;;;;;;;14.00;13.50;;;27.10;41.70;;;;;;5074652;28;20558;-51
2021/12/11 11:35:05;;;;;;;12.07;11.68;;;27.10;41.70;;;;;;5080770;28;20444;-50
2021/12/11 11:37:34;;;;;;;12.10;11.70;;;27.10;41.70;;;;;;5093828;28;20451;-48
2021/12/11 11:40:02;;;;;;;14.53;14.03;;;27.00;41.60;;;;;;5094990;28;20207;-49
2021/12/11 11:42:29;;;;;;;13.10;12.70;;;27.00;41.70;;;;;;5084110;28;20439;-49
2021/12/11 11:44:55;;;;;;;14.30;13.80;;;26.80;41.80;;;;;;5074906;28;20447;-47
2021/12/11 11:47:22;;;;;;;12.90;12.40;;;26.80;42.00;;;;;;5091360;28;20942;-46
2021/12/11 11:49:56;;;;;;;12.70;12.30;;;26.80;42.20;;;;;;5094167;28;20441;-47
2021/12/11 11:52:24;;;;;;;13.50;13.10;;;27.10;42.00;;;;;;5094535;28;20223;-48
2021/12/11 11:54:55;;;;;;;12.80;12.40;;;27.30;41.50;;;;;;5094305;28;20440;-49
2021/12/11 11:57:28;;;;;;;13.53;13.03;;;27.30;41.30;;;;;;5093889;28;20224;-48
2021/12/11 11:59:57;;;;;;;13.60;13.10;;;27.30;41.30;;;;;;5094612;28;20442;-50
2021/12/11 12:02:27;;;;;;;13.53;13.03;;;27.10;41.40;;;;;;5094508;28;20453;-51
2021/12/11 12:04:57;;;;;;;13.30;12.80;;;26.90;41.40;;;;;;5094392;28;20811;-53
2021/12/11 12:07:29;;;;;;;11.50;11.10;;;26.80;41.80;;;;;;5077145;28;20496;-49
2021/12/11 12:09:58;;;;;;;14.60;14.10;;;26.80;42.10;;;;;;5074059;28;20201;-48
2021/12/11 12:12:26;;;;;;;14.03;13.53;;;27.20;42.00;;;;;;5073634;28;20936;-50
2021/12/11 12:14:55;;;;;;;12.33;11.93;;;27.40;41.40;;;;;;5074013;28;20451;-55
2021/12/11 12:17:25;;;;;;;13.50;13.00;;;27.50;41.30;;;;;;5074260;28;20479;-53
2021/12/11 12:19:53;;;;;;;13.80;13.30;;;27.40;41.20;;;;;;5073826;28;20444;-53
2021/12/11 12:22:21;;;;;;;14.00;13.50;;;27.40;41.30;;;;;;5073647;28;20376;-49
2021/12/11 12:24:53;;;;;;;12.70;12.30;;;27.30;41.30;;;;;;5073990;28;20451;-47
2021/12/11 12:27:23;;;;;;;14.13;13.70;;;27.20;41.50;;;;;;5074389;28;20439;-55
2021/12/11 12:29:51;;;;;;;11.65;11.25;;;27.10;41.60;;;;;;5084388;28;20444;-53
2021/12/11 12:32:22;;;;;;;12.00;11.60;;;27.00;41.70;;;;;;5092683;28;20429;-47
2021/12/11 12:34:50;;;;;;;13.70;13.20;;;27.10;42.00;;;;;;5093854;28;20474;-47
2021/12/11 12:37:17;;;;;;;14.27;13.77;;;27.50;41.70;;;;;;5093672;28;20474;-46
2021/12/11 12:39:48;;;;;;;13.60;13.20;;;27.70;41.20;;;;;;5083465;28;20863;-50
2021/12/11 12:42:23;;;;;;;14.43;13.93;;;27.70;41.00;;;;;;5073695;28;20448;-50
2021/12/11 12:44:54;;;;;;;14.70;14.20;;;27.50;41.00;;;;;;5074038;28;20427;-50